Time;durP1;ratioP1;P1;durP2;ratioP2;P2;SDS_P1;SDS_P2;PMS_P1;PMS_P2;Temp;Humidity;BMP_temperature;BMP_pressure;BME280_temperature;BME280_humidity;BME280_pressure;Samples;Min_cycle;Max_cycle;Signal;HPM_P1;HPM_P2
2023/07/24 00:01:18;;;;;;;7.53;3.30;;;18.60;99.90;;;;;;5037561;28;20509;-52
2023/07/24 00:03:45;;;;;;;5.63;4.67;;;18.60;99.90;;;;;;5051237;28;20490;-52
2023/07/24 00:06:11;;;;;;;3.30;3.10;;;18.60;99.90;;;;;;5045185;28;20490;-52
2023/07/24 00:08:39;;;;;;;5.10;3.70;;;18.60;99.90;;;;;;5040302;28;20493;-53
2023/07/24 00:11:08;;;;;;;3.50;3.20;;;18.50;99.90;;;;;;5041382;28;20510;-52
2023/07/24 00:13:34;;;;;;;4.87;3.63;;;18.60;99.90;;;;;;5051108;28;20515;-53
2023/07/24 00:16:01;;;;;;;3.70;3.40;;;18.50;99.90;;;;;;5046585;28;20458;-52
2023/07/24 00:18:27;;;;;;;4.60;3.17;;;18.50;99.90;;;;;;5041467;28;20516;-52
2023/07/24 00:20:54;;;;;;;3.83;3.27;;;18.50;99.90;;;;;;5047878;28;20513;-53
2023/07/24 00:23:20;;;;;;;5.33;3.33;;;18.50;99.90;;;;;;5048942;28;21012;-51
2023/07/24 00:25:48;;;;;;;3.90;3.60;;;18.50;99.90;;;;;;5051470;28;20979;-53
2023/07/24 00:28:15;;;;;;;6.60;3.40;;;18.50;99.90;;;;;;5050227;28;20505;-52
2023/07/24 00:30:43;;;;;;;3.60;2.83;;;18.40;99.90;;;;;;5049942;28;20535;-52
2023/07/24 00:33:09;;;;;;;4.10;3.40;;;18.40;99.90;;;;;;5046804;28;20847;-52
2023/07/24 00:35:36;;;;;;;4.10;3.40;;;18.40;99.90;;;;;;5050325;28;20544;-52
2023/07/24 00:38:02;;;;;;;3.47;3.17;;;18.40;99.90;;;;;;5052491;28;20500;-53
2023/07/24 00:40:29;;;;;;;3.07;2.77;;;18.40;99.90;;;;;;5054496;28;20505;-53
2023/07/24 00:42:56;;;;;;;4.67;3.60;;;18.30;99.90;;;;;;5053226;28;20493;-52
2023/07/24 00:45:23;;;;;;;3.23;3.03;;;18.40;99.90;;;;;;5048168;28;21089;-53
2023/07/24 00:47:51;;;;;;;3.17;2.97;;;18.30;99.90;;;;;;5048807;28;20890;-51
2023/07/24 00:50:18;;;;;;;3.73;3.30;;;18.30;99.90;;;;;;5054046;28;21097;-51
2023/07/24 00:52:45;;;;;;;7.70;3.40;;;18.30;99.90;;;;;;5054774;28;20489;-52
2023/07/24 00:55:13;;;;;;;8.70;2.80;;;18.40;99.90;;;;;;5052539;28;20533;-52
2023/07/24 00:57:40;;;;;;;2.90;2.70;;;18.50;99.90;;;;;;5052850;28;20982;-51
2023/07/24 01:00:10;;;;;;;3.50;2.60;;;18.50;99.90;;;;;;5053939;28;20501;-51
2023/07/24 01:02:37;;;;;;;3.13;2.83;;;18.70;99.90;;;;;;5045356;28;20978;-51
2023/07/24 01:05:04;;;;;;;3.30;2.57;;;18.80;99.90;;;;;;5051458;28;20488;-52
2023/07/24 01:07:31;;;;;;;3.10;2.80;;;18.90;99.90;;;;;;5051481;28;20553;-50
2023/07/24 01:09:58;;;;;;;2.73;2.50;;;18.90;99.90;;;;;;5058104;28;20919;-51
2023/07/24 01:12:32;;;;;;;4.70;2.43;;;18.90;99.90;;;;;;5050792;28;20493;-52
2023/07/24 01:15:05;;;;;;;7.70;2.80;;;19.00;99.90;;;;;;5052969;28;20454;-52
2023/07/24 01:17:34;;;;;;;3.93;2.23;;;19.10;99.90;;;;;;5046987;28;20561;-52
2023/07/24 01:20:04;;;;;;;3.43;2.20;;;19.00;99.90;;;;;;5045271;28;21025;-52
2023/07/24 01:22:40;;;;;;;2.73;2.00;;;19.10;99.90;;;;;;5052693;28;20577;-52
2023/07/24 01:25:13;;;;;;;7.23;3.13;;;19.10;99.90;;;;;;5052687;28;20492;-52
2023/07/24 01:27:45;;;;;;;2.97;2.77;;;19.10;99.90;;;;;;5051237;28;20500;-52
2023/07/24 01:30:12;;;;;;;2.53;2.33;;;19.10;99.90;;;;;;5053174;28;20509;-52
2023/07/24 01:32:39;;;;;;;11.13;3.20;;;19.10;99.90;;;;;;5053671;28;20497;-51
2023/07/24 01:35:07;;;;;;;2.47;2.27;;;19.00;99.90;;;;;;5049467;28;20545;-52
2023/07/24 01:37:35;;;;;;;2.70;2.37;;;19.00;99.90;;;;;;5051493;28;21071;-52
2023/07/24 01:40:03;;;;;;;3.47;2.53;;;18.90;99.90;;;;;;5042951;28;20829;-52
2023/07/24 01:42:30;;;;;;;2.80;2.60;;;19.00;99.90;;;;;;5049833;28;20478;-52
2023/07/24 01:44:58;;;;;;;4.90;2.90;;;18.90;99.90;;;;;;5046606;28;20531;-51
2023/07/24 01:47:25;;;;;;;2.67;2.47;;;18.90;99.90;;;;;;5052414;28;20510;-53
2023/07/24 01:49:52;;;;;;;2.27;2.07;;;18.90;99.90;;;;;;5044397;28;21090;-52
2023/07/24 01:52:18;;;;;;;2.63;2.47;;;18.80;99.90;;;;;;5050873;28;20576;-52
2023/07/24 01:54:45;;;;;;;3.23;2.80;;;18.90;99.90;;;;;;5053045;28;20533;-52
2023/07/24 01:57:11;;;;;;;4.23;2.93;;;18.80;99.90;;;;;;5052777;28;20545;-52
2023/07/24 01:59:38;;;;;;;5.97;2.60;;;18.90;99.90;;;;;;5053460;28;20560;-52
2023/07/24 02:02:06;;;;;;;3.20;3.00;;;18.90;99.90;;;;;;5047656;28;20885;-52
2023/07/24 02:04:32;;;;;;;6.93;3.07;;;18.90;99.90;;;;;;5052371;28;20593;-53
2023/07/24 02:06:59;;;;;;;2.67;2.47;;;18.90;99.90;;;;;;5042395;28;20561;-52
2023/07/24 02:09:25;;;;;;;7.03;2.80;;;18.80;99.90;;;;;;5044965;28;20580;-52
2023/07/24 02:11:52;;;;;;;5.10;2.33;;;18.80;99.90;;;;;;5050753;28;21031;-52
2023/07/24 02:14:20;;;;;;;3.77;3.03;;;18.90;99.90;;;;;;5053031;28;20538;-52
2023/07/24 02:16:47;;;;;;;13.77;3.33;;;18.80;99.90;;;;;;5044639;28;20474;-53
2023/07/24 02:19:14;;;;;;;3.70;2.50;;;18.80;99.90;;;;;;5050675;28;21150;-52
2023/07/24 02:21:41;;;;;;;3.03;2.80;;;18.80;99.90;;;;;;5052320;28;20552;-53
2023/07/24 02:24:08;;;;;;;4.30;2.50;;;18.70;99.90;;;;;;5050259;28;20980;-51
2023/07/24 02:26:34;;;;;;;5.70;3.20;;;18.70;99.90;;;;;;5049656;28;20556;-51
2023/07/24 02:29:01;;;;;;;3.33;3.10;;;18.70;99.90;;;;;;5053230;28;20532;-52
2023/07/24 02:31:27;;;;;;;3.57;3.07;;;18.60;99.90;;;;;;5046152;28;20566;-51
2023/07/24 02:33:54;;;;;;;2.93;2.83;;;18.60;99.90;;;;;;5049429;28;20558;-53
2023/07/24 02:36:22;;;;;;;4.70;2.80;;;18.50;99.90;;;;;;5052053;28;20552;-51
2023/07/24 02:38:48;;;;;;;3.20;2.73;;;18.50;99.90;;;;;;5054456;28;20554;-52
2023/07/24 02:41:15;;;;;;;3.13;2.53;;;18.60;99.90;;;;;;5073012;22;20575;-53
2023/07/24 02:43:41;;;;;;;4.27;2.87;;;18.60;99.90;;;;;;5069008;28;20559;-54
2023/07/24 02:46:08;;;;;;;2.50;2.30;;;18.60;99.90;;;;;;5069216;28;20584;-53
2023/07/24 02:48:34;;;;;;;2.63;2.43;;;18.70;99.90;;;;;;5072930;28;20480;-54
2023/07/24 02:51:01;;;;;;;2.80;2.60;;;18.80;99.90;;;;;;5062906;28;20571;-54
2023/07/24 02:53:28;;;;;;;2.90;2.70;;;18.70;99.90;;;;;;5056167;28;21128;-53
2023/07/24 02:55:55;;;;;;;2.67;2.30;;;18.80;99.90;;;;;;5049638;28;20460;-53
2023/07/24 02:58:22;;;;;;;3.30;3.00;;;18.80;99.90;;;;;;5041601;28;20561;-53
2023/07/24 03:00:48;;;;;;;3.10;2.80;;;18.80;99.90;;;;;;5056759;28;20481;-52
2023/07/24 03:03:15;;;;;;;5.53;2.20;;;18.90;99.90;;;;;;5057618;28;20445;-53
2023/07/24 03:05:41;;;;;;;7.70;2.23;;;18.90;99.90;;;;;;5067236;28;20582;-53
2023/07/24 03:08:08;;;;;;;2.23;2.13;;;19.00;99.90;;;;;;5052804;28;20560;-53
2023/07/24 03:10:36;;;;;;;15.73;2.17;;;19.10;99.90;;;;;;5053683;28;20894;-53
2023/07/24 03:13:02;;;;;;;6.73;2.17;;;19.10;99.90;;;;;;5051648;28;20565;-53
2023/07/24 03:15:29;;;;;;;5.07;2.70;;;19.10;99.90;;;;;;5043367;28;20535;-53
2023/07/24 03:17:55;;;;;;;4.33;2.27;;;19.10;99.90;;;;;;5047077;28;20507;-54
2023/07/24 03:20:22;;;;;;;4.23;2.13;;;19.10;99.90;;;;;;5045350;28;20513;-53
2023/07/24 03:22:49;;;;;;;3.90;2.43;;;19.00;99.90;;;;;;5044788;28;20538;-53
2023/07/24 03:25:15;;;;;;;2.70;2.50;;;19.00;99.90;;;;;;5036523;28;20921;-54
2023/07/24 03:27:43;;;;;;;5.83;2.47;;;18.90;99.90;;;;;;5034147;28;20550;-54
2023/07/24 03:30:10;;;;;;;1.80;1.70;;;18.90;99.90;;;;;;5055266;28;20509;-53
2023/07/24 03:32:37;;;;;;;2.67;2.47;;;18.90;97.70;;;;;;5048016;28;20574;-54
2023/07/24 03:35:04;;;;;;;2.50;1.80;;;18.80;94.50;;;;;;5052207;28;20489;-53
2023/07/24 03:37:31;;;;;;;2.60;2.40;;;18.80;84.00;;;;;;5049426;28;20544;-53
2023/07/24 03:39:58;;;;;;;2.40;2.30;;;18.80;80.70;;;;;;5045998;28;20556;-54
2023/07/24 03:42:28;;;;;;;2.80;2.40;;;18.70;70.40;;;;;;5039123;28;20553;-54
2023/07/24 03:44:57;;;;;;;2.13;2.03;;;18.70;50.40;;;;;;5041297;28;21055;-53
2023/07/24 03:47:24;;;;;;;3.53;2.17;;;18.60;44.00;;;;;;5049368;28;20541;-53
2023/07/24 03:49:50;;;;;;;4.60;2.60;;;18.50;32.30;;;;;;5047806;28;20544;-53
2023/07/24 03:52:17;;;;;;;2.77;2.57;;;18.40;99.90;;;;;;5041832;28;20529;-53
2023/07/24 03:54:43;;;;;;;3.00;2.50;;;18.20;99.90;;;;;;5041728;28;20599;-53
2023/07/24 03:57:10;;;;;;;4.97;2.93;;;18.20;99.90;;;;;;5040517;28;20549;-54
2023/07/24 03:59:37;;;;;;;5.00;2.90;;;18.10;99.90;;;;;;5056040;28;20552;-53
2023/07/24 04:02:05;;;;;;;7.20;3.53;;;18.10;99.90;;;;;;5048019;28;20569;-54
2023/07/24 04:04:32;;;;;;;5.90;3.60;;;18.00;99.90;;;;;;5057375;28;21097;-54
2023/07/24 04:06:59;;;;;;;7.27;3.40;;;17.90;99.90;;;;;;5054187;28;20971;-53
2023/07/24 04:09:25;;;;;;;7.07;3.60;;;17.70;99.90;;;;;;5052699;28;20557;-54
2023/07/24 04:11:52;;;;;;;5.60;3.67;;;17.60;99.90;;;;;;5039239;28;20572;-53
2023/07/24 04:14:18;;;;;;;8.13;3.03;;;17.60;99.90;;;;;;5054727;28;20469;-54
2023/07/24 04:16:45;;;;;;;8.10;3.27;;;17.50;99.90;;;;;;5054094;28;20502;-54
2023/07/24 04:19:13;;;;;;;3.93;2.97;;;17.50;85.80;;;;;;5049025;28;20488;-54
2023/07/24 04:21:40;;;;;;;2.77;2.57;;;17.40;69.30;;;;;;5042116;28;20580;-54
2023/07/24 04:24:06;;;;;;;3.90;2.70;;;17.30;61.90;;;;;;5052543;28;20911;-54
2023/07/24 04:26:33;;;;;;;5.70;2.10;;;17.20;57.60;;;;;;5040701;28;20589;-54
2023/07/24 04:28:59;;;;;;;2.30;2.07;;;17.20;53.40;;;;;;5045845;28;20549;-54
2023/07/24 04:31:26;;;;;;;2.70;2.50;;;17.20;49.30;;;;;;5036798;28;20565;-53
2023/07/24 04:33:52;;;;;;;2.40;2.23;;;17.20;45.40;;;;;;5053341;28;21039;-55
2023/07/24 04:36:20;;;;;;;2.73;2.13;;;17.10;44.80;;;;;;5039368;28;20492;-50
2023/07/24 04:38:47;;;;;;;4.03;2.23;;;17.10;43.60;;;;;;5043726;28;20561;-51
2023/07/24 04:41:13;;;;;;;3.10;2.90;;;17.10;43.20;;;;;;5045875;28;20581;-50
2023/07/24 04:43:40;;;;;;;2.40;2.10;;;17.10;43.20;;;;;;5055374;28;20460;-51
2023/07/24 04:46:06;;;;;;;3.57;2.00;;;17.10;44.00;;;;;;5048775;28;20519;-51
2023/07/24 04:48:33;;;;;;;3.87;2.43;;;17.10;42.70;;;;;;5057053;28;20556;-51
2023/07/24 04:50:59;;;;;;;2.87;2.67;;;17.10;41.10;;;;;;5044101;28;20931;-50
2023/07/24 04:53:27;;;;;;;3.70;2.63;;;17.10;41.20;;;;;;5044324;28;21207;-50
2023/07/24 04:55:54;;;;;;;2.90;2.70;;;17.10;40.20;;;;;;5052972;28;20880;-50
2023/07/24 04:58:20;;;;;;;1.87;1.77;;;17.10;39.90;;;;;;5054402;28;20549;-51
2023/07/24 05:00:47;;;;;;;2.50;2.40;;;17.20;39.10;;;;;;5049921;28;20564;-51
2023/07/24 05:03:16;;;;;;;2.50;2.30;;;17.20;39.60;;;;;;5044554;28;21061;-50
2023/07/24 05:05:43;;;;;;;2.30;2.20;;;17.20;39.00;;;;;;5064059;28;20472;-50
2023/07/24 05:08:09;;;;;;;2.80;2.60;;;17.20;38.20;;;;;;5070202;28;20981;-50
2023/07/24 05:10:37;;;;;;;2.83;2.60;;;17.30;38.50;;;;;;5052492;28;20564;-51
2023/07/24 05:13:04;;;;;;;2.60;2.40;;;17.30;37.90;;;;;;5059167;28;20504;-51
2023/07/24 05:15:30;;;;;;;2.20;2.00;;;17.30;38.10;;;;;;5069484;28;20452;-51
2023/07/24 05:17:57;;;;;;;2.57;2.37;;;17.40;37.70;;;;;;5062952;28;20536;-50
2023/07/24 05:20:23;;;;;;;2.80;2.40;;;17.40;37.00;;;;;;5062518;28;20571;-51
2023/07/24 05:22:50;;;;;;;6.53;2.73;;;17.40;37.30;;;;;;5056736;28;20438;-51
2023/07/24 05:25:16;;;;;;;6.33;3.30;;;17.40;37.00;;;;;;5052122;28;21087;-50
2023/07/24 05:27:44;;;;;;;2.87;2.67;;;17.50;36.50;;;;;;5056183;28;20546;-50
2023/07/24 05:30:10;;;;;;;2.93;2.73;;;17.60;36.10;;;;;;5052798;28;20565;-50
2023/07/24 05:32:37;;;;;;;4.50;2.80;;;17.60;35.00;;;;;;5070690;28;20552;-52
2023/07/24 05:35:03;;;;;;;4.87;3.20;;;17.60;36.00;;;;;;5067319;28;20286;-51
2023/07/24 05:37:30;;;;;;;5.27;3.97;;;17.70;34.70;;;;;;5048166;28;20502;-51
2023/07/24 05:39:57;;;;;;;6.33;4.40;;;17.70;33.30;;;;;;5044410;28;20962;-50
2023/07/24 05:42:23;;;;;;;4.10;3.20;;;17.70;33.30;;;;;;5052467;28;20460;-51
2023/07/24 05:44:51;;;;;;;3.50;3.20;;;17.80;32.90;;;;;;5051417;28;20552;-51
2023/07/24 05:47:17;;;;;;;3.20;3.00;;;17.90;33.00;;;;;;5057105;28;20480;-50
2023/07/24 05:49:44;;;;;;;4.23;2.83;;;18.00;33.20;;;;;;5052151;28;20537;-50
2023/07/24 05:52:10;;;;;;;3.77;3.40;;;18.00;32.50;;;;;;5051853;28;20492;-50
2023/07/24 05:54:37;;;;;;;5.10;3.50;;;18.10;31.60;;;;;;5041053;28;20561;-51
2023/07/24 05:57:04;;;;;;;2.57;2.37;;;18.10;30.20;;;;;;5048188;28;20552;-50
2023/07/24 05:59:30;;;;;;;2.53;2.33;;;18.20;29.60;;;;;;5054077;28;20449;-51
2023/07/24 06:01:58;;;;;;;2.40;2.20;;;18.20;27.40;;;;;;5050630;28;20570;-51
2023/07/24 06:04:25;;;;;;;2.10;2.00;;;18.20;23.10;;;;;;5061310;28;22562;-52
2023/07/24 06:06:51;;;;;;;3.83;2.13;;;18.30;20.50;;;;;;5053562;28;20524;-50
2023/07/24 06:09:18;;;;;;;3.10;2.33;;;18.30;98.20;;;;;;5050706;28;20549;-50
2023/07/24 06:11:44;;;;;;;1.90;1.80;;;18.30;99.90;;;;;;5051783;28;20924;-50
2023/07/24 06:14:11;;;;;;;2.20;2.07;;;18.50;99.90;;;;;;5058375;28;20553;-51
2023/07/24 06:16:37;;;;;;;4.23;2.40;;;18.60;99.90;;;;;;5061695;28;20446;-51
2023/07/24 06:19:05;;;;;;;4.07;2.10;;;18.70;99.90;;;;;;5050347;28;20469;-50
2023/07/24 06:21:56;;;;;;;2.40;2.23;;;18.80;31.50;;;;;;5036473;28;20498;-57
2023/07/24 06:24:25;;;;;;;1.93;1.80;;;18.90;56.70;;;;;;5052945;28;20814;-58
2023/07/24 06:26:52;;;;;;;2.70;2.50;;;19.00;56.10;;;;;;5043712;28;20578;-60
2023/07/24 06:29:18;;;;;;;2.40;2.20;;;19.10;53.40;;;;;;5023754;28;20628;-60
2023/07/24 06:31:45;;;;;;;2.40;2.20;;;19.10;67.00;;;;;;5052726;28;20560;-59
2023/07/24 06:34:13;;;;;;;4.00;2.87;;;19.00;91.70;;;;;;5054880;28;20537;-60
2023/07/24 06:36:39;;;;;;;2.03;1.93;;;19.10;93.10;;;;;;5055742;28;20944;-60
2023/07/24 06:39:06;;;;;;;4.63;2.83;;;19.10;88.70;;;;;;5047301;28;20545;-59
2023/07/24 06:41:32;;;;;;;3.20;2.40;;;19.20;90.90;;;;;;5042227;28;20514;-51
2023/07/24 06:43:59;;;;;;;2.90;2.70;;;19.20;99.90;;;;;;5033553;28;20483;-51
2023/07/24 06:46:25;;;;;;;2.70;2.50;;;19.30;99.90;;;;;;5050261;28;20617;-52
2023/07/24 06:48:52;;;;;;;2.67;2.47;;;19.40;99.90;;;;;;5045155;28;20509;-51
2023/07/24 06:51:20;;;;;;;3.67;2.40;;;19.40;99.90;;;;;;5053027;28;20544;-52
2023/07/24 06:53:46;;;;;;;2.07;1.80;;;19.40;99.90;;;;;;5042549;28;20553;-53
2023/07/24 06:56:13;;;;;;;2.57;2.37;;;19.50;99.90;;;;;;5043101;28;20549;-51
2023/07/24 06:58:40;;;;;;;2.67;2.23;;;19.60;99.90;;;;;;5047194;28;20454;-52
2023/07/24 07:01:07;;;;;;;11.53;2.70;;;19.70;99.90;;;;;;5045540;28;20571;-52
2023/07/24 07:03:34;;;;;;;2.33;2.13;;;19.80;99.90;;;;;;5057738;28;20966;-52
2023/07/24 07:06:02;;;;;;;1.90;1.80;;;19.90;99.90;;;;;;5039419;28;20478;-52
2023/07/24 07:08:31;;;;;;;1.80;1.70;;;20.10;99.90;;;;;;5039534;28;20912;-52
2023/07/24 07:10:58;;;;;;;1.90;1.80;;;20.20;99.90;;;;;;5044116;28;21081;-53
2023/07/24 07:13:25;;;;;;;2.30;2.20;;;20.20;99.90;;;;;;5051964;28;20502;-52
2023/07/24 07:15:51;;;;;;;1.83;1.73;;;20.40;99.90;;;;;;5047322;28;20536;-52
2023/07/24 07:18:18;;;;;;;1.83;1.73;;;20.40;99.90;;;;;;5056980;28;20541;-52
2023/07/24 07:20:46;;;;;;;2.00;1.90;;;20.50;99.90;;;;;;5058078;28;20514;-52
2023/07/24 07:23:13;;;;;;;1.77;1.67;;;20.40;23.00;;;;;;5049454;28;20535;-52
2023/07/24 07:25:41;;;;;;;2.03;1.93;;;20.40;99.90;;;;;;5040674;28;20486;-51
2023/07/24 07:28:07;;;;;;;1.93;1.70;;;20.50;99.90;;;;;;5039168;28;20464;-51
2023/07/24 07:30:34;;;;;;;2.10;2.00;;;20.50;32.30;;;;;;5041265;28;20577;-51
2023/07/24 07:33:00;;;;;;;1.80;1.70;;;20.60;22.20;;;;;;5046555;28;20604;-52
2023/07/24 07:35:27;;;;;;;2.50;2.30;;;20.70;99.90;;;;;;5044887;28;20509;-52
2023/07/24 07:37:53;;;;;;;3.10;2.47;;;20.90;32.80;;;;;;5053458;28;20490;-52
2023/07/24 07:40:20;;;;;;;2.10;2.00;;;21.00;56.30;;;;;;5050491;28;20960;-52
2023/07/24 07:42:48;;;;;;;2.37;2.20;;;21.10;47.90;;;;;;5031433;28;20557;-52
2023/07/24 07:45:14;;;;;;;1.70;1.60;;;21.10;76.40;;;;;;5038973;28;20545;-52
2023/07/24 07:47:41;;;;;;;1.87;1.77;;;21.20;82.00;;;;;;5039804;28;20573;-51
2023/07/24 07:50:08;;;;;;;3.87;2.50;;;21.20;74.30;;;;;;5049790;28;20597;-52
2023/07/24 07:52:35;;;;;;;2.00;1.90;;;21.40;96.40;;;;;;5049644;28;20519;-52
2023/07/24 07:55:01;;;;;;;2.47;2.27;;;21.40;93.20;;;;;;5039855;28;20571;-52
2023/07/24 07:57:28;;;;;;;1.90;1.80;;;21.40;86.90;;;;;;5056486;28;20488;-52
2023/07/24 07:59:56;;;;;;;2.57;2.43;;;21.60;86.00;;;;;;5048747;28;20501;-51
2023/07/24 08:02:22;;;;;;;2.10;2.00;;;21.70;99.90;;;;;;5048263;28;20536;-52
2023/07/24 08:04:49;;;;;;;1.80;1.70;;;21.90;99.90;;;;;;5041639;28;20541;-52
2023/07/24 08:07:15;;;;;;;3.63;2.10;;;21.90;99.90;;;;;;5040923;28;20571;-52
2023/07/24 08:09:42;;;;;;;1.77;1.50;;;22.00;99.90;;;;;;5035320;28;20551;-53
2023/07/24 08:12:09;;;;;;;1.80;1.70;;;21.90;99.90;;;;;;5048964;28;20568;-51
2023/07/24 08:14:35;;;;;;;1.87;1.77;;;22.10;99.90;;;;;;5037179;28;20534;-52
2023/07/24 08:17:04;;;;;;;1.93;1.70;;;22.20;99.90;;;;;;5045213;28;20463;-52
2023/07/24 08:19:30;;;;;;;1.70;1.60;;;22.20;99.90;;;;;;5042121;28;20548;-51
2023/07/24 08:21:57;;;;;;;1.83;1.50;;;22.20;99.90;;;;;;5036294;28;20494;-52
2023/07/24 08:24:24;;;;;;;2.20;2.10;;;22.30;99.90;;;;;;5042122;28;20546;-52
2023/07/24 08:26:50;;;;;;;1.80;1.70;;;22.40;99.90;;;;;;5043660;28;20486;-51
2023/07/24 08:29:17;;;;;;;1.60;1.50;;;22.50;99.90;;;;;;5040188;28;20457;-52
2023/07/24 08:31:43;;;;;;;1.77;1.63;;;22.60;99.90;;;;;;5041496;28;20565;-52
2023/07/24 08:34:11;;;;;;;1.90;1.80;;;22.80;99.90;;;;;;5033437;28;20544;-51
2023/07/24 08:36:38;;;;;;;1.23;1.23;;;22.90;27.00;;;;;;5041745;28;20546;-51
2023/07/24 08:39:04;;;;;;;4.17;1.90;;;23.00;37.40;;;;;;5051575;28;20449;-51
2023/07/24 08:41:34;;;;;;;5.80;1.50;;;23.10;52.30;;;;;;5051158;28;21031;-51
2023/07/24 08:44:01;;;;;;;4.50;1.40;;;23.10;55.50;;;;;;5056085;28;20556;-51
2023/07/24 08:46:28;;;;;;;1.20;1.10;;;23.10;60.20;;;;;;5051847;28;20565;-52
2023/07/24 08:48:55;;;;;;;1.47;1.40;;;23.00;66.80;;;;;;5056420;28;20513;-52
2023/07/24 08:51:24;;;;;;;3.13;1.60;;;23.10;59.30;;;;;;5051846;28;20564;-51
2023/07/24 08:53:51;;;;;;;1.80;1.70;;;23.30;66.50;;;;;;5048574;28;20552;-51
2023/07/24 08:56:18;;;;;;;2.00;1.80;;;23.50;78.70;;;;;;5039959;28;20553;-52
2023/07/24 08:58:44;;;;;;;1.87;1.67;;;23.50;99.90;;;;;;5051845;28;20542;-52
2023/07/24 09:01:11;;;;;;;1.80;1.70;;;23.70;97.20;;;;;;5049019;28;20537;-52
2023/07/24 09:03:38;;;;;;;2.60;1.70;;;23.70;99.90;;;;;;5056487;28;20490;-52
2023/07/24 09:06:07;;;;;;;2.90;1.70;;;23.80;99.90;;;;;;5046404;28;20549;-52
2023/07/24 09:08:37;;;;;;;2.10;2.00;;;24.00;99.90;;;;;;5049599;28;20826;-52
2023/07/24 09:11:05;;;;;;;6.47;1.87;;;24.40;99.90;;;;;;5045209;28;20638;-52
2023/07/24 09:13:32;;;;;;;2.23;2.13;;;24.60;99.90;;;;;;5052263;28;20887;-51
2023/07/24 09:15:59;;;;;;;3.03;2.00;;;24.60;99.90;;;;;;5047968;28;20462;-51
2023/07/24 09:18:26;;;;;;;3.07;2.23;;;24.80;99.90;;;;;;5053855;28;20479;-51
2023/07/24 09:20:53;;;;;;;1.80;1.70;;;24.80;99.90;;;;;;5042012;28;20568;-51
2023/07/24 09:23:27;;;;;;;2.47;2.10;;;24.70;99.90;;;;;;5045183;28;20489;-52
2023/07/24 09:25:55;;;;;;;2.60;2.40;;;24.80;99.90;;;;;;5051789;28;20453;-52
2023/07/24 09:28:22;;;;;;;2.40;2.30;;;25.00;99.90;;;;;;5053222;28;20454;-51
2023/07/24 09:30:57;;;;;;;2.00;1.90;;;25.00;99.90;;;;;;5043477;28;20475;-52
2023/07/24 09:33:24;;;;;;;2.13;2.03;;;25.10;99.90;;;;;;5049554;28;20491;-51
2023/07/24 09:36:00;;;;;;;2.10;2.00;;;25.20;99.90;;;;;;5039146;28;20553;-51
2023/07/24 09:38:27;;;;;;;1.60;1.60;;;25.10;99.90;;;;;;5044826;28;20511;-51
2023/07/24 09:40:58;;;;;;;1.90;1.80;;;25.10;99.90;;;;;;5039780;28;20608;-53
2023/07/24 09:43:26;;;;;;;2.30;2.10;;;24.80;99.90;;;;;;5045980;28;20462;-52
2023/07/24 09:45:54;;;;;;;1.90;1.80;;;24.90;99.90;;;;;;5058433;28;20539;-52
2023/07/24 09:48:23;;;;;;;1.93;1.83;;;24.90;99.90;;;;;;5039654;28;20536;-51
2023/07/24 09:50:54;;;;;;;2.40;2.17;;;25.00;99.90;;;;;;5044805;28;21078;-52
2023/07/24 09:53:24;;;;;;;2.20;2.10;;;25.30;99.90;;;;;;5053659;28;20934;-52
2023/07/24 09:55:56;;;;;;;2.27;2.10;;;25.10;99.90;;;;;;5049899;28;20461;-51
2023/07/24 09:58:25;;;;;;;2.30;2.20;;;25.00;99.90;;;;;;5052424;28;20490;-52
2023/07/24 10:00:52;;;;;;;2.43;2.23;;;25.00;99.90;;;;;;5050854;28;20988;-51
2023/07/24 10:03:20;;;;;;;2.27;2.17;;;25.30;99.90;;;;;;5046768;28;20541;-52
2023/07/24 10:05:47;;;;;;;2.73;1.83;;;25.70;99.90;;;;;;5067824;28;20811;-52
2023/07/24 10:08:15;;;;;;;2.37;2.27;;;26.20;99.90;;;;;;5044932;28;20570;-52
2023/07/24 10:10:42;;;;;;;2.17;2.00;;;26.60;99.90;;;;;;5058709;28;20516;-51
2023/07/24 10:13:10;;;;;;;1.97;1.87;;;26.90;99.90;;;;;;5052964;28;20502;-51
2023/07/24 10:15:39;;;;;;;2.00;1.90;;;26.70;99.90;;;;;;5059099;28;20888;-51
2023/07/24 10:18:07;;;;;;;2.20;2.10;;;26.90;99.90;;;;;;5043192;28;20540;-52
2023/07/24 10:20:35;;;;;;;2.27;2.07;;;26.90;99.90;;;;;;5053666;28;20485;-51
2023/07/24 10:23:03;;;;;;;2.30;2.00;;;26.80;99.90;;;;;;5037329;28;20461;-51
2023/07/24 10:25:32;;;;;;;2.27;2.17;;;26.40;99.90;;;;;;5047701;28;20477;-52
2023/07/24 10:28:05;;;;;;;2.53;2.23;;;26.30;99.90;;;;;;5051420;28;20568;-51
2023/07/24 10:30:32;;;;;;;3.93;2.43;;;26.70;99.90;;;;;;5057363;28;20524;-52
2023/07/24 10:33:06;;;;;;;2.87;2.67;;;27.50;99.90;;;;;;5053032;28;20956;-51
2023/07/24 10:35:38;;;;;;;3.93;2.40;;;27.90;99.90;;;;;;5057649;28;20462;-51
2023/07/24 10:38:05;;;;;;;10.37;3.03;;;28.70;99.90;;;;;;5061979;28;20573;-51
2023/07/24 10:40:31;;;;;;;3.23;2.43;;;28.60;99.90;;;;;;5042115;28;20489;-51
2023/07/24 10:43:05;;;;;;;2.60;2.40;;;28.50;99.90;;;;;;5044166;28;20561;-50
2023/07/24 10:45:42;;;;;;;3.00;2.77;;;28.30;99.90;;;;;;5053820;28;20982;-50
2023/07/24 10:48:11;;;;;;;2.50;2.30;;;27.40;99.90;;;;;;5058231;28;20570;-50
2023/07/24 10:50:39;;;;;;;2.70;2.50;;;27.30;99.90;;;;;;5046860;28;20523;-50
2023/07/24 10:53:06;;;;;;;3.33;2.97;;;27.00;99.90;;;;;;5051600;28;20481;-50
2023/07/24 10:55:32;;;;;;;3.13;2.83;;;26.50;99.90;;;;;;5052809;28;20917;-50
2023/07/24 10:57:59;;;;;;;3.97;3.10;;;26.40;99.90;;;;;;5045039;28;20549;-51
2023/07/24 11:00:26;;;;;;;6.80;3.03;;;26.30;99.90;;;;;;5051551;28;20897;-51
2023/07/24 11:02:54;;;;;;;4.83;3.33;;;26.30;99.90;;;;;;5064304;28;20524;-50
2023/07/24 11:05:22;;;;;;;10.93;2.60;;;27.30;99.90;;;;;;5062618;28;20869;-50
2023/07/24 11:07:48;;;;;;;4.53;2.90;;;27.60;99.90;;;;;;5053129;28;20477;-50
2023/07/24 11:10:16;;;;;;;3.40;3.10;;;27.40;99.90;;;;;;5050304;28;20563;-51
2023/07/24 11:12:42;;;;;;;3.57;3.27;;;26.90;99.90;;;;;;5050511;28;20501;-51
2023/07/24 11:15:10;;;;;;;5.47;3.23;;;26.70;99.90;;;;;;5039405;28;20559;-50
2023/07/24 11:17:40;;;;;;;3.50;2.80;;;26.30;99.90;;;;;;5041454;28;21042;-50
2023/07/24 11:20:08;;;;;;;10.30;3.53;;;26.00;99.90;;;;;;5047682;28;20483;-51
2023/07/24 11:22:36;;;;;;;7.20;3.67;;;25.80;99.90;;;;;;5056842;28;20482;-50
2023/07/24 11:25:04;;;;;;;5.93;3.30;;;25.70;99.90;;;;;;5039942;28;20548;-51
2023/07/24 11:27:31;;;;;;;3.70;3.27;;;25.60;99.90;;;;;;5042309;28;20959;-51
2023/07/24 11:29:57;;;;;;;3.73;3.43;;;25.60;99.90;;;;;;5050129;28;20513;-51
2023/07/24 11:32:24;;;;;;;3.93;3.53;;;25.50;99.90;;;;;;5052623;28;20887;-50
2023/07/24 11:34:52;;;;;;;3.70;3.13;;;25.40;99.90;;;;;;5058623;28;20569;-51
2023/07/24 11:37:19;;;;;;;4.23;3.40;;;25.40;99.90;;;;;;5055324;28;20486;-50
2023/07/24 11:39:57;;;;;;;3.53;3.27;;;25.40;99.90;;;;;;5052462;28;21072;-51
2023/07/24 11:42:26;;;;;;;10.03;3.63;;;25.30;99.90;;;;;;5048607;28;20532;-51
2023/07/24 11:44:52;;;;;;;3.93;3.57;;;25.30;99.90;;;;;;5043899;28;20451;-50
2023/07/24 11:47:19;;;;;;;7.87;3.63;;;25.30;99.90;;;;;;5046529;28;20573;-51
2023/07/24 11:49:56;;;;;;;3.80;3.47;;;25.30;99.90;;;;;;5043239;28;20497;-51
2023/07/24 11:52:23;;;;;;;4.43;3.50;;;25.30;99.90;;;;;;5056282;28;20441;-51
2023/07/24 11:55:00;;;;;;;4.40;4.00;;;25.20;99.90;;;;;;5065310;28;20625;-51
2023/07/24 11:57:27;;;;;;;11.00;4.57;;;25.20;99.90;;;;;;5041518;28;20457;-52
2023/07/24 11:59:56;;;;;;;6.10;4.87;;;25.20;99.90;;;;;;5031397;28;20512;-51
2023/07/24 12:02:23;;;;;;;6.97;3.80;;;24.50;99.90;;;;;;5052800;28;20548;-50
2023/07/24 12:04:56;;;;;;;8.70;4.43;;;23.90;99.90;;;;;;5059582;28;20531;-51
2023/07/24 12:07:23;;;;;;;7.40;4.30;;;23.10;63.60;;;;;;5043237;28;20909;-50
2023/07/24 12:09:52;;;;;;;5.70;4.10;;;22.00;99.90;;;;;;5040802;28;20557;-51
2023/07/24 12:12:20;;;;;;;8.17;5.07;;;21.10;99.90;;;;;;5042022;28;20516;-51
2023/07/24 12:14:46;;;;;;;14.50;4.70;;;20.50;99.90;;;;;;5043226;28;20513;-50
2023/07/24 12:17:19;;;;;;;6.17;4.30;;;20.20;99.90;;;;;;5046224;28;20485;-52
2023/07/24 12:19:46;;;;;;;8.77;4.67;;;19.90;99.90;;;;;;5044121;28;20822;-51
2023/07/24 12:22:13;;;;;;;5.60;4.93;;;19.80;85.10;;;;;;5055216;28;20458;-51
2023/07/24 12:24:40;;;;;;;9.63;4.83;;;19.80;76.60;;;;;;5043383;28;20512;-50
2023/07/24 12:27:06;;;;;;;8.03;3.93;;;19.70;79.60;;;;;;5044479;28;20513;-51
2023/07/24 12:29:34;;;;;;;7.80;4.37;;;19.70;65.00;;;;;;5042952;28;20595;-50
2023/07/24 12:32:01;;;;;;;6.70;3.90;;;19.70;60.00;;;;;;5049008;28;20561;-51
2023/07/24 12:34:27;;;;;;;16.53;4.80;;;19.70;57.70;;;;;;5044792;28;20501;-50
2023/07/24 12:36:54;;;;;;;6.60;4.13;;;19.80;58.80;;;;;;5052759;28;20950;-50
2023/07/24 12:39:21;;;;;;;8.40;3.70;;;20.00;58.90;;;;;;5050795;28;20955;-51
2023/07/24 12:41:47;;;;;;;5.60;3.30;;;20.90;47.90;;;;;;5037872;28;20877;-50
2023/07/24 12:44:14;;;;;;;7.43;3.20;;;21.90;99.90;;;;;;5047594;28;20489;-51
2023/07/24 12:46:41;;;;;;;4.27;3.30;;;22.80;99.90;;;;;;5058632;28;20551;-51